Time,TemperatureF,DewpointF,PressureIn,WindDirection,WindDirectionDegrees,WindSpeedMPH,WindSpeedGustMPH,Humidity,HourlyPrecipIn,Conditions,Clouds,dailyrainin,SoftwareType,DateUTC
2013-04-29 00:00:00,55.2,50.8,29.80,ENE,77,0.0,0.0,85,0.00,,OVC018,0.00,VWS V14.01,2013-04-29 04:00:00,
2013-04-29 00:01:00,55.1,50.7,29.81,ENE,77,0.0,0.0,85,0.00,,BKN018,0.00,VWS V14.01,2013-04-29 04:01:00,
2013-04-29 00:02:00,55.1,50.7,29.81,ENE,77,0.0,0.0,85,0.00,,BKN018,0.00,VWS V14.01,2013-04-29 04:02:00,
2013-04-29 00:03:00,55.1,50.7,29.81,ENE,77,0.0,0.0,85,0.00,,BKN018,0.00,VWS V14.01,2013-04-29 04:03:00,
2013-04-29 00:06:00,55.0,50.6,29.81,ENE,77,0.0,0.0,85,0.00,,BKN018,0.00,VWS V14.01,2013-04-29 04:06:00,
2013-04-29 00:11:00,54.9,50.5,29.80,ENE,77,0.0,0.0,85,0.00,,BKN018,0.00,VWS V14.01,2013-04-29 04:11:00,
2013-04-29 00:16:00,54.7,50.3,29.80,ENE,77,0.0,0.0,85,0.00,,BKN018,0.00,VWS V14.01,2013-04-29 04:16:00,
2013-04-29 00:21:00,54.5,50.1,29.80,ENE,77,0.0,0.0,85,0.00,,BKN018,0.00,VWS V14.01,2013-04-29 04:21:00,
2013-04-29 00:26:00,54.3,49.9,29.80,ENE,77,0.0,0.0,85,0.00,,BKN018,0.00,VWS V14.01,2013-04-29 04:26:00,
2013-04-29 00:31:00,54.1,49.7,29.80,ENE,77,0.0,0.0,85,0.00,,BKN018,0.00,VWS V14.01,2013-04-29 04:31:00,
2013-04-29 00:36:00,53.9,49.5,29.80,ENE,77,0.0,0.0,85,0.00,,BKN018,0.00,VWS V14.01,2013-04-29 04:36:00,
2013-04-29 00:41:00,53.6,49.2,29.80,ENE,77,0.0,0.0,85,0.00,,BKN018,0.00,VWS V14.01,2013-04-29 04:41:00,
2013-04-29 00:46:00,53.3,48.9,29.80,ENE,77,0.0,0.0,85,0.00,,BKN018,0.00,VWS V14.01,2013-04-29 04:46:00,
2013-04-29 00:51:00,52.9,48.2,29.80,ENE,77,0.0,0.0,84,0.00,,BKN018,0.00,VWS V14.01,2013-04-29 04:51:00,
2013-04-29 00:56:00,52.7,48.0,29.80,ENE,77,0.0,0.0,84,0.00,,BKN018,0.00,VWS V14.01,2013-04-29 04:56:00,
2013-04-29 01:01:00,52.4,47.7,29.80,ENE,77,0.0,0.0,84,0.00,,BKN020,0.00,VWS V14.01,2013-04-29 05:01:00,
2013-04-29 01:06:00,52.2,47.5,29.80,ENE,77,0.0,0.0,84,0.00,,BKN020,0.00,VWS V14.01,2013-04-29 05:06:00,
2013-04-29 01:12:00,52.0,47.3,29.80,ENE,77,0.0,0.0,84,0.00,,BKN020,0.00,VWS V14.01,2013-04-29 05:12:00,
2013-04-29 01:17:00,51.8,47.4,29.80,ENE,77,0.0,0.0,85,0.00,,BKN020,0.00,VWS V14.01,2013-04-29 05:17:00,
2013-04-29 01:22:00,51.4,46.7,29.81,ENE,77,0.0,0.0,84,0.00,,BKN020,0.00,VWS V14.01,2013-04-29 05:22:00,
2013-04-29 01:27:00,51.1,46.4,29.81,ENE,77,0.0,0.0,84,0.00,,BKN020,0.00,VWS V14.01,2013-04-29 05:27:00,
2013-04-29 01:32:00,50.8,46.2,29.81,ENE,77,0.0,0.0,84,0.00,,BKN020,0.00,VWS V14.01,2013-04-29 05:32:00,
2013-04-29 01:37:00,50.6,46.0,29.81,ENE,77,0.0,0.0,84,0.00,,BKN020,0.00,VWS V14.01,2013-04-29 05:37:00,
2013-04-29 01:42:00,50.3,45.7,29.81,ENE,77,0.0,0.0,84,0.00,,SCT020,0.00,VWS V14.01,2013-04-29 05:42:00,
2013-04-29 01:47:00,50.1,45.5,29.82,ENE,77,0.0,0.0,84,0.00,,SCT020,0.00,VWS V14.01,2013-04-29 05:47:00,
2013-04-29 01:52:00,49.9,45.6,29.82,ENE,77,0.0,0.0,85,0.00,,SCT020,0.00,VWS V14.01,2013-04-29 05:52:00,
2013-04-29 01:57:00,49.9,45.6,29.81,ENE,77,0.0,0.0,85,0.00,,SCT020,0.00,VWS V14.01,2013-04-29 05:57:00,
2013-04-29 02:02:00,49.7,45.4,29.81,ENE,77,0.0,0.0,85,0.00,,BKN020,0.00,VWS V14.01,2013-04-29 06:02:00,
2013-04-29 02:07:00,49.6,45.6,29.82,ENE,77,0.0,0.0,86,0.00,,BKN020,0.00,VWS V14.01,2013-04-29 06:07:00,
2013-04-29 02:12:00,49.6,45.6,29.82,ENE,77,0.0,0.0,86,0.00,,BKN020,0.00,VWS V14.01,2013-04-29 06:12:00,
2013-04-29 02:17:00,49.6,45.9,29.82,ENE,77,0.0,0.0,87,0.00,,BKN020,0.00,VWS V14.01,2013-04-29 06:17:00,
2013-04-29 02:22:00,49.7,46.0,29.82,ENE,77,0.0,0.0,87,0.00,,BKN020,0.00,VWS V14.01,2013-04-29 06:22:00,
2013-04-29 02:27:00,49.9,46.5,29.82,ENE,77,0.0,0.0,88,0.00,,BKN020,0.00,VWS V14.01,2013-04-29 06:27:00,
2013-04-29 02:32:00,50.2,46.8,29.82,ENE,77,0.0,0.0,88,0.00,,BKN020,0.00,VWS V14.01,2013-04-29 06:32:00,
2013-04-29 02:37:00,50.4,47.0,29.82,ENE,77,0.0,0.0,88,0.00,,BKN020,0.00,VWS V14.01,2013-04-29 06:37:00,
2013-04-29 02:42:00,50.5,47.4,29.82,ENE,77,0.0,0.0,89,0.00,,BKN020,0.00,VWS V14.01,2013-04-29 06:42:00,
2013-04-29 02:47:00,50.6,47.5,29.82,ENE,77,0.0,0.0,89,0.00,,BKN020,0.00,VWS V14.01,2013-04-29 06:47:00,
2013-04-29 02:53:00,50.5,47.4,29.82,ENE,77,0.0,0.0,89,0.00,,BKN020,0.00,VWS V14.01,2013-04-29 06:53:00,
2013-04-29 02:58:00,50.5,47.4,29.82,ENE,77,0.0,0.0,89,0.00,,BKN020,0.00,VWS V14.01,2013-04-29 06:58:00,
2013-04-29 03:03:00,50.6,47.5,29.81,ENE,77,0.0,0.0,89,0.00,,OVC018,0.00,VWS V14.01,2013-04-29 07:03:00,
2013-04-29 03:08:00,50.9,48.1,29.81,ENE,77,0.0,0.0,90,0.00,,OVC018,0.00,VWS V14.01,2013-04-29 07:08:00,
2013-04-29 03:13:00,51.2,48.4,29.82,ENE,77,0.0,0.0,90,0.00,,OVC018,0.00,VWS V14.01,2013-04-29 07:13:00,
2013-04-29 03:18:00,51.5,48.7,29.82,ENE,77,0.0,0.0,90,0.00,,OVC018,0.00,VWS V14.01,2013-04-29 07:18:00,
2013-04-29 03:23:00,51.6,48.8,29.81,ENE,77,0.0,0.0,90,0.00,,OVC018,0.00,VWS V14.01,2013-04-29 07:23:00,
2013-04-29 03:28:00,51.6,48.8,29.81,ENE,77,0.0,0.0,90,0.00,,OVC018,0.00,VWS V14.01,2013-04-29 07:28:00,
2013-04-29 03:33:00,51.6,48.8,29.81,ENE,77,0.0,0.0,90,0.00,,OVC018,0.00,VWS V14.01,2013-04-29 07:33:00,
2013-04-29 03:38:00,51.7,48.9,29.81,ENE,77,0.0,0.0,90,0.00,,OVC018,0.00,VWS V14.01,2013-04-29 07:38:00,
2013-04-29 03:43:00,51.8,49.0,29.82,ENE,77,0.0,0.0,90,0.00,,OVC018,0.00,VWS V14.01,2013-04-29 07:43:00,
2013-04-29 03:48:00,51.8,49.0,29.82,ENE,77,0.0,0.0,90,0.00,,OVC018,0.00,VWS V14.01,2013-04-29 07:48:00,
2013-04-29 03:53:00,51.5,48.7,29.81,ENE,77,0.0,0.0,90,0.00,,OVC018,0.00,VWS V14.01,2013-04-29 07:53:00,
2013-04-29 03:58:00,51.3,48.5,29.81,ENE,77,0.0,0.0,90,0.00,,OVC018,0.00,VWS V14.01,2013-04-29 07:58:00,
2013-04-29 04:03:00,51.1,48.3,29.81,ENE,77,0.0,0.0,90,0.00,,OVC022,0.00,VWS V14.01,2013-04-29 08:03:00,
2013-04-29 04:08:00,50.9,48.1,29.81,ENE,77,0.0,0.0,90,0.00,,OVC022,0.00,VWS V14.01,2013-04-29 08:08:00,
2013-04-29 04:13:00,50.8,48.0,29.81,ENE,77,0.0,0.0,90,0.00,,OVC022,0.00,VWS V14.01,2013-04-29 08:13:00,
2013-04-29 04:18:00,50.7,47.9,29.81,ENE,77,0.0,0.0,90,0.00,,OVC022,0.00,VWS V14.01,2013-04-29 08:18:00,
2013-04-29 04:23:00,50.5,47.7,29.81,ENE,77,0.0,0.0,90,0.00,,OVC022,0.00,VWS V14.01,2013-04-29 08:23:00,
2013-04-29 04:28:00,50.3,47.5,29.81,ENE,77,0.0,0.0,90,0.00,,OVC022,0.00,VWS V14.01,2013-04-29 08:28:00,
2013-04-29 04:33:00,50.0,47.2,29.81,ENE,77,0.0,0.0,90,0.00,,OVC022,0.00,VWS V14.01,2013-04-29 08:33:00,
2013-04-29 04:38:00,49.7,46.9,29.81,ENE,77,0.0,0.0,90,0.00,,OVC022,0.00,VWS V14.01,2013-04-29 08:38:00,
2013-04-29 04:43:00,49.5,46.7,29.81,ENE,77,0.0,0.0,90,0.00,,OVC022,0.00,VWS V14.01,2013-04-29 08:43:00,
2013-04-29 04:48:00,49.2,46.4,29.81,ENE,77,0.0,0.0,90,0.00,,OVC022,0.00,VWS V14.01,2013-04-29 08:48:00,
2013-04-29 04:53:00,49.0,45.9,29.81,ENE,77,0.0,0.0,89,0.00,,OVC022,0.00,VWS V14.01,2013-04-29 08:53:00,
2013-04-29 04:58:00,48.8,45.7,29.81,ENE,77,0.0,0.0,89,0.00,,OVC022,0.00,VWS V14.01,2013-04-29 08:58:00,
2013-04-29 05:03:00,48.6,45.8,29.82,ENE,77,0.0,0.0,90,0.00,,OVC024,0.00,VWS V14.01,2013-04-29 09:03:00,
2013-04-29 05:09:00,48.4,45.6,29.81,ENE,77,0.0,0.0,90,0.00,,OVC024,0.00,VWS V14.01,2013-04-29 09:09:00,
2013-04-29 05:14:00,48.3,45.2,29.81,ENE,77,0.0,0.0,89,0.00,,OVC024,0.00,VWS V14.01,2013-04-29 09:14:00,
2013-04-29 05:19:00,48.1,45.0,29.82,ENE,77,0.0,0.0,89,0.00,,OVC024,0.00,VWS V14.01,2013-04-29 09:19:00,
2013-04-29 05:24:00,47.9,44.8,29.81,ENE,77,0.0,0.0,89,0.00,,OVC024,0.00,VWS V14.01,2013-04-29 09:24:00,
2013-04-29 05:29:00,47.7,44.6,29.82,ENE,77,0.0,0.0,89,0.00,,SCT024,0.00,VWS V14.01,2013-04-29 09:29:00,
2013-04-29 05:34:00,47.5,44.4,29.82,ENE,77,0.0,0.0,89,0.00,,SCT024,0.00,VWS V14.01,2013-04-29 09:34:00,
2013-04-29 05:39:00,47.2,44.1,29.82,ENE,77,0.0,0.0,89,0.00,,SCT024,0.00,VWS V14.01,2013-04-29 09:39:00,
2013-04-29 05:44:00,47.0,43.9,29.82,ENE,77,0.0,0.0,89,0.00,,SCT024,0.00,VWS V14.01,2013-04-29 09:44:00,
2013-04-29 05:49:00,46.8,43.7,29.83,ENE,77,0.0,0.0,89,0.00,,SCT024,0.00,VWS V14.01,2013-04-29 09:49:00,
2013-04-29 05:54:00,46.6,43.5,29.83,ENE,77,0.0,0.0,89,0.00,,SCT024,0.00,VWS V14.01,2013-04-29 09:54:00,
2013-04-29 05:59:00,46.4,43.3,29.83,ENE,77,0.0,0.0,89,0.00,,SCT024,0.00,VWS V14.01,2013-04-29 09:59:00,
2013-04-29 06:04:00,46.4,43.3,29.83,ENE,77,0.0,0.0,89,0.00,,,0.00,VWS V14.01,2013-04-29 10:04:00,
2013-04-29 06:09:00,46.1,43.0,29.83,ENE,77,0.0,0.0,89,0.00,,,0.00,VWS V14.01,2013-04-29 10:09:00,
2013-04-29 06:14:00,46.0,43.0,29.83,ENE,77,0.0,0.0,89,0.00,,,0.00,VWS V14.01,2013-04-29 10:14:00,
2013-04-29 06:19:00,45.9,42.8,29.83,ENE,77,0.0,0.0,89,0.00,,,0.00,VWS V14.01,2013-04-29 10:19:00,
2013-04-29 06:24:00,45.7,42.7,29.83,ENE,77,0.0,0.0,89,0.00,,,0.00,VWS V14.01,2013-04-29 10:24:00,
2013-04-29 06:29:00,45.5,42.5,29.83,ENE,77,0.0,0.0,89,0.00,,,0.00,VWS V14.01,2013-04-29 10:29:00,
2013-04-29 06:34:00,45.4,42.3,29.84,ENE,77,0.0,0.0,89,0.00,,,0.00,VWS V14.01,2013-04-29 10:34:00,
2013-04-29 06:39:00,45.2,42.2,29.84,ENE,77,0.0,0.0,89,0.00,,,0.00,VWS V14.01,2013-04-29 10:39:00,
2013-04-29 06:45:00,45.1,42.1,29.84,ENE,77,0.0,0.0,89,0.00,,,0.00,VWS V14.01,2013-04-29 10:45:00,
2013-04-29 06:50:00,44.9,41.9,29.84,ENE,77,0.0,0.0,89,0.00,,,0.00,VWS V14.01,2013-04-29 10:50:00,
2013-04-29 06:55:00,44.8,41.8,29.84,ENE,77,0.0,0.0,89,0.00,,,0.00,VWS V14.01,2013-04-29 10:55:00,
2013-04-29 07:00:00,44.7,41.7,29.84,ENE,77,0.0,0.0,89,0.00,,,0.00,VWS V14.01,2013-04-29 11:00:00,
2013-04-29 07:05:00,44.7,42.0,29.84,ENE,76,0.0,0.0,90,0.00,,,0.00,VWS V14.01,2013-04-29 11:05:00,
2013-04-29 07:10:00,44.7,42.0,29.85,ENE,77,0.0,0.0,90,0.00,,,0.00,VWS V14.01,2013-04-29 11:10:00,
2013-04-29 07:15:00,44.8,42.0,29.85,ENE,77,0.0,0.0,90,0.00,,,0.00,VWS V14.01,2013-04-29 11:15:00,
2013-04-29 07:20:00,45.0,42.2,29.85,ENE,77,0.0,0.0,90,0.00,,,0.00,VWS V14.01,2013-04-29 11:20:00,
2013-04-29 07:25:00,45.2,42.5,29.85,ENE,77,0.0,0.0,90,0.00,,,0.00,VWS V14.01,2013-04-29 11:25:00,
2013-04-29 07:30:00,45.3,42.5,29.85,ENE,77,0.0,0.0,90,0.00,,,0.00,VWS V14.01,2013-04-29 11:30:00,
2013-04-29 07:35:00,45.5,42.7,29.86,ENE,77,0.0,0.0,90,0.00,,,0.00,VWS V14.01,2013-04-29 11:35:00,
2013-04-29 07:40:00,46.0,43.5,29.86,ENE,77,0.0,0.0,91,0.00,,,0.00,VWS V14.01,2013-04-29 11:40:00,
2013-04-29 07:45:00,46.4,43.9,29.87,ENE,77,0.0,0.0,91,0.00,,,0.00,VWS V14.01,2013-04-29 11:45:00,
2013-04-29 07:50:00,47.0,44.5,29.87,ENE,77,0.0,0.0,91,0.00,,,0.00,VWS V14.01,2013-04-29 11:50:00,
2013-04-29 07:55:00,47.6,45.4,29.86,ENE,77,0.0,0.0,92,0.00,,,0.00,VWS V14.01,2013-04-29 11:55:00,
2013-04-29 08:00:00,48.0,45.8,29.86,ENE,77,0.0,1.0,92,0.00,,,0.00,VWS V14.01,2013-04-29 12:00:00,
2013-04-29 08:05:00,48.4,46.2,29.87,ENE,77,0.0,0.0,92,0.00,,,0.00,VWS V14.01,2013-04-29 12:05:00,
2013-04-29 08:10:00,48.8,46.6,29.87,ENE,77,0.0,0.0,92,0.00,,,0.00,VWS V14.01,2013-04-29 12:10:00,
2013-04-29 08:15:00,49.4,47.2,29.87,ENE,77,5.0,5.0,92,0.00,,,0.00,VWS V14.01,2013-04-29 12:15:00,
2013-04-29 08:20:00,50.0,47.8,29.87,ENE,77,0.0,0.0,92,0.00,,,0.00,VWS V14.01,2013-04-29 12:20:00,
2013-04-29 08:25:00,50.4,48.2,29.87,ENE,77,0.0,0.0,92,0.00,,,0.00,VWS V14.01,2013-04-29 12:25:00,
2013-04-29 08:30:00,50.8,48.6,29.88,ENE,77,0.0,0.0,92,0.00,,,0.00,VWS V14.01,2013-04-29 12:30:00,
2013-04-29 08:35:00,51.1,48.9,29.88,East,82,0.0,0.0,92,0.00,,,0.00,VWS V14.01,2013-04-29 12:35:00,
2013-04-29 08:41:00,51.5,49.5,29.88,East,82,0.0,0.0,93,0.00,,,0.00,VWS V14.01,2013-04-29 12:41:00,
2013-04-29 08:46:00,52.0,50.0,29.88,East,82,0.0,0.0,93,0.00,,,0.00,VWS V14.01,2013-04-29 12:46:00,
2013-04-29 08:51:00,52.5,50.5,29.88,East,85,0.0,0.0,93,0.00,,,0.00,VWS V14.01,2013-04-29 12:51:00,
2013-04-29 08:56:00,53.0,51.0,29.88,East,85,0.0,0.0,93,0.00,,,0.00,VWS V14.01,2013-04-29 12:56:00,
2013-04-29 09:01:00,53.3,51.3,29.88,East,85,0.0,0.0,93,0.00,,BKN230,0.00,VWS V14.01,2013-04-29 13:01:00,
2013-04-29 09:06:00,53.8,51.8,29.88,East,85,0.0,0.0,93,0.00,,BKN230,0.00,VWS V14.01,2013-04-29 13:06:00,
2013-04-29 09:11:00,54.4,52.4,29.87,East,85,0.0,0.0,93,0.00,,BKN230,0.00,VWS V14.01,2013-04-29 13:11:00,
2013-04-29 09:16:00,54.9,52.6,29.87,ESE,103,3.0,5.0,92,0.00,,BKN230,0.00,VWS V14.01,2013-04-29 13:16:00,
2013-04-29 09:21:00,55.3,53.0,29.87,ESE,107,0.0,0.0,92,0.00,,BKN230,0.00,VWS V14.01,2013-04-29 13:21:00,
2013-04-29 09:26:00,55.8,53.5,29.87,ESE,107,0.0,3.0,92,0.00,,BKN230,0.00,VWS V14.01,2013-04-29 13:26:00,
2013-04-29 09:31:00,56.2,53.6,29.87,ESE,107,0.0,0.0,91,0.00,,BKN230,0.00,VWS V14.01,2013-04-29 13:31:00,
2013-04-29 09:36:00,56.8,53.9,29.87,ESE,107,5.0,5.0,90,0.00,,BKN230,0.00,VWS V14.01,2013-04-29 13:36:00,
2013-04-29 09:41:00,57.4,54.2,29.86,ESE,107,5.0,7.0,89,0.00,,BKN230,0.00,VWS V14.01,2013-04-29 13:41:00,
2013-04-29 09:46:00,57.9,54.1,29.86,ESE,109,0.0,1.0,87,0.00,,BKN230,0.00,VWS V14.01,2013-04-29 13:46:00,
2013-04-29 09:51:00,58.5,54.3,29.86,ESE,109,0.0,0.0,86,0.00,,BKN230,0.00,VWS V14.01,2013-04-29 13:51:00,
2013-04-29 09:56:00,59.1,54.6,29.86,ESE,109,0.0,0.0,85,0.00,,BKN230,0.00,VWS V14.01,2013-04-29 13:56:00,
2013-04-29 10:01:00,59.7,54.5,29.86,ESE,117,3.0,6.0,83,0.00,,SCT230,0.00,VWS V14.01,2013-04-29 14:01:00,
2013-04-29 10:06:00,60.4,54.5,29.86,SE,125,4.0,6.0,81,0.00,,SCT230,0.00,VWS V14.01,2013-04-29 14:06:00,
2013-04-29 10:11:00,60.6,54.4,29.86,SE,125,5.0,5.0,80,0.00,,SCT230,0.00,VWS V14.01,2013-04-29 14:11:00,
2013-04-29 10:16:00,61.2,54.6,29.86,SE,141,5.0,7.0,79,0.00,,SCT230,0.00,VWS V14.01,2013-04-29 14:16:00,
2013-04-29 10:21:00,61.7,54.4,29.86,SE,141,5.0,6.0,77,0.00,,SCT230,0.00,VWS V14.01,2013-04-29 14:21:00,
2013-04-29 10:26:00,62.1,54.8,29.85,SE,141,0.0,0.0,77,0.00,,SCT230,0.00,VWS V14.01,2013-04-29 14:26:00,
2013-04-29 10:31:00,62.6,54.9,29.86,SE,141,0.0,0.0,76,0.00,,SCT230,0.00,VWS V14.01,2013-04-29 14:31:00,
2013-04-29 10:36:00,63.0,55.0,29.85,SE,141,0.0,0.0,75,0.00,,SCT230,0.00,VWS V14.01,2013-04-29 14:36:00,
2013-04-29 10:42:00,63.4,55.3,29.85,SE,141,0.0,0.0,75,0.00,,SCT230,0.00,VWS V14.01,2013-04-29 14:42:00,
2013-04-29 10:47:00,63.8,55.4,29.85,SE,141,0.0,0.0,74,0.00,,SCT230,0.00,VWS V14.01,2013-04-29 14:47:00,
2013-04-29 10:52:00,64.1,54.9,29.85,SE,141,0.0,1.0,72,0.00,,SCT230,0.00,VWS V14.01,2013-04-29 14:52:00,
2013-04-29 10:57:00,64.4,55.2,29.84,ESE,114,0.0,1.0,72,0.00,,SCT230,0.00,VWS V14.01,2013-04-29 14:57:00,
2013-04-29 11:02:00,64.8,55.6,29.84,ESE,114,0.0,0.0,72,0.00,,SCT230,0.00,VWS V14.01,2013-04-29 15:02:00,
2013-04-29 11:07:00,65.3,56.0,29.84,ESE,114,0.0,0.0,72,0.00,,SCT230,0.00,VWS V14.01,2013-04-29 15:07:00,
2013-04-29 11:12:00,65.7,56.0,29.85,ESE,114,0.0,1.0,71,0.00,,BKN230,0.00,VWS V14.01,2013-04-29 15:12:00,
2013-04-29 11:17:00,66.2,56.1,29.85,SE,138,0.0,6.0,70,0.00,,BKN230,0.00,VWS V14.01,2013-04-29 15:17:00,
2013-04-29 11:22:00,66.6,56.5,29.85,SE,138,0.0,0.0,70,0.00,,BKN230,0.00,VWS V14.01,2013-04-29 15:22:00,
2013-04-29 11:27:00,67.0,56.5,29.85,SE,137,9.0,9.0,69,0.00,,BKN230,0.00,VWS V14.01,2013-04-29 15:27:00,
2013-04-29 11:33:00,67.3,56.8,29.85,SSE,164,0.0,6.0,69,0.00,,BKN230,0.00,VWS V14.01,2013-04-29 15:33:00,
2013-04-29 11:38:00,67.6,56.3,29.85,SSE,165,0.0,2.0,67,0.00,,BKN230,0.00,VWS V14.01,2013-04-29 15:38:00,
2013-04-29 11:43:00,68.0,57.1,29.85,SSE,163,0.0,0.0,68,0.00,,BKN230,0.00,VWS V14.01,2013-04-29 15:43:00,
2013-04-29 11:48:00,68.3,57.3,29.85,SSE,162,0.0,1.0,68,0.00,,BKN230,0.00,VWS V14.01,2013-04-29 15:48:00,
2013-04-29 11:53:00,68.5,57.1,29.85,SSE,155,0.0,7.0,67,0.00,,BKN230,0.00,VWS V14.01,2013-04-29 15:53:00,
2013-04-29 11:58:00,68.9,57.1,29.84,SSE,155,0.0,0.0,66,0.00,,BKN230,0.00,VWS V14.01,2013-04-29 15:58:00,
2013-04-29 12:03:00,69.1,56.4,29.84,SSE,155,1.0,3.0,64,0.00,,BKN230,0.00,VWS V14.01,2013-04-29 16:03:00,
2013-04-29 12:08:00,69.7,57.4,29.85,South,172,0.0,0.0,65,0.00,,BKN230,0.00,VWS V14.01,2013-04-29 16:08:00,
2013-04-29 12:13:00,69.9,56.8,29.84,South,181,0.0,0.0,63,0.00,,BKN230,0.00,VWS V14.01,2013-04-29 16:13:00,
2013-04-29 12:18:00,70.0,56.4,29.84,South,183,0.0,0.0,62,0.00,,BKN230,0.00,VWS V14.01,2013-04-29 16:18:00,
2013-04-29 12:23:00,70.1,56.5,29.84,South,183,0.0,7.0,62,0.00,,BKN230,0.00,VWS V14.01,2013-04-29 16:23:00,
2013-04-29 12:28:00,70.3,56.2,29.84,South,184,6.0,9.0,61,0.00,,BKN230,0.00,VWS V14.01,2013-04-29 16:28:00,
2013-04-29 12:33:00,70.3,56.2,29.84,South,184,0.0,0.0,61,0.00,,BKN230,0.00,VWS V14.01,2013-04-29 16:33:00,
2013-04-29 12:38:00,70.4,56.8,29.84,South,182,0.0,4.0,62,0.00,,BKN230,0.00,VWS V14.01,2013-04-29 16:38:00,
2013-04-29 12:43:00,70.6,56.5,29.84,South,182,0.0,6.0,61,0.00,,BKN230,0.00,VWS V14.01,2013-04-29 16:43:00,
2013-04-29 12:48:00,70.8,56.2,29.84,SSW,192,7.0,7.0,60,0.00,,BKN230,0.00,VWS V14.01,2013-04-29 16:48:00,
2013-04-29 12:53:00,71.1,56.1,29.84,SSW,192,0.0,6.0,59,0.00,,BKN230,0.00,VWS V14.01,2013-04-29 16:53:00,
2013-04-29 12:58:00,71.3,56.2,29.83,South,191,2.0,7.0,59,0.00,,BKN230,0.00,VWS V14.01,2013-04-29 16:58:00,
2013-04-29 13:03:00,71.5,56.4,29.83,SSW,193,0.0,5.0,59,0.00,,BKN230,0.00,VWS V14.01,2013-04-29 17:03:00,
2013-04-29 13:08:00,71.4,55.9,29.83,SSW,209,9.0,9.0,58,0.00,,BKN230,0.00,VWS V14.01,2013-04-29 17:08:00,
2013-04-29 13:13:00,71.4,55.4,29.83,South,186,0.0,5.0,57,0.00,,BKN230,0.00,VWS V14.01,2013-04-29 17:13:00,
2013-04-29 13:18:00,71.5,55.5,29.83,South,186,0.0,3.0,57,0.00,,BKN230,0.00,VWS V14.01,2013-04-29 17:18:00,
2013-04-29 13:23:00,71.7,56.2,29.83,South,188,3.0,7.0,58,0.00,,BKN230,0.00,VWS V14.01,2013-04-29 17:23:00,
2013-04-29 13:28:00,71.8,55.8,29.83,SSW,206,4.0,8.0,57,0.00,,BKN230,0.00,VWS V14.01,2013-04-29 17:28:00,
2013-04-29 13:34:00,72.0,56.0,29.83,SSW,201,3.0,8.0,57,0.00,,BKN230,0.00,VWS V14.01,2013-04-29 17:34:00,
2013-04-29 13:39:00,72.0,55.5,29.83,SSW,202,8.0,11.0,56,0.00,,BKN230,0.00,VWS V14.01,2013-04-29 17:39:00,
2013-04-29 13:44:00,72.0,55.0,29.83,SW,214,10.0,11.0,55,0.00,,BKN230,0.00,VWS V14.01,2013-04-29 17:44:00,
2013-04-29 13:49:00,71.9,55.9,29.83,SSW,212,6.0,8.0,57,0.00,,BKN230,0.00,VWS V14.01,2013-04-29 17:49:00,
2013-04-29 13:54:00,71.8,55.8,29.83,SSW,201,2.0,7.0,57,0.00,,BKN230,0.00,VWS V14.01,2013-04-29 17:54:00,
2013-04-29 13:59:00,71.7,54.7,29.83,SSW,209,0.0,0.0,55,0.00,,BKN230,0.00,VWS V14.01,2013-04-29 17:59:00,
2013-04-29 14:04:00,71.8,54.8,29.83,SW,215,2.0,11.0,55,0.00,,BKN230,0.00,VWS V14.01,2013-04-29 18:04:00,
2013-04-29 14:09:00,72.1,55.6,29.83,SSW,213,3.0,4.0,56,0.00,,BKN230,0.00,VWS V14.01,2013-04-29 18:09:00,
2013-04-29 14:14:00,72.4,54.8,29.83,SSW,207,1.0,7.0,54,0.00,,OVC210,0.00,VWS V14.01,2013-04-29 18:14:00,
2013-04-29 14:19:00,72.5,55.4,29.83,SSW,201,0.0,5.0,55,0.00,,OVC210,0.00,VWS V14.01,2013-04-29 18:19:00,
2013-04-29 14:24:00,72.7,55.1,29.82,SSW,211,6.0,7.0,54,0.00,,OVC210,0.00,VWS V14.01,2013-04-29 18:24:00,
2013-04-29 14:29:00,72.5,54.9,29.83,SW,228,6.0,12.0,54,0.00,,OVC210,0.00,VWS V14.01,2013-04-29 18:29:00,
2013-04-29 14:34:00,72.2,55.7,29.83,WSW,240,7.0,7.0,56,0.00,,OVC210,0.00,VWS V14.01,2013-04-29 18:34:00,
2013-04-29 14:39:00,72.1,54.0,29.83,SW,222,4.0,9.0,53,0.00,,OVC210,0.00,VWS V14.01,2013-04-29 18:39:00,
2013-04-29 14:44:00,72.0,55.0,29.83,SSW,201,10.0,10.0,55,0.00,,OVC210,0.00,VWS V14.01,2013-04-29 18:44:00,
2013-04-29 14:49:00,72.0,54.0,29.82,SSW,213,8.0,9.0,53,0.00,,OVC210,0.00,VWS V14.01,2013-04-29 18:49:00,
2013-04-29 14:54:00,72.0,54.0,29.82,SSW,193,7.0,9.0,53,0.00,,OVC210,0.00,VWS V14.01,2013-04-29 18:54:00,
2013-04-29 14:59:00,72.2,54.7,29.82,SSW,193,6.0,6.0,54,0.00,,OVC210,0.00,VWS V14.01,2013-04-29 18:59:00,
2013-04-29 15:04:00,72.4,54.8,29.82,SSW,202,5.0,8.0,54,0.00,,OVC210,0.00,VWS V14.01,2013-04-29 19:04:00,
2013-04-29 15:09:00,72.3,54.2,29.82,SW,219,2.0,9.0,53,0.00,,OVC210,0.00,VWS V14.01,2013-04-29 19:09:00,
2013-04-29 15:14:00,72.3,55.2,29.82,SW,215,5.0,5.0,55,0.00,,OVC210,0.00,VWS V14.01,2013-04-29 19:14:00,
2013-04-29 15:19:00,72.1,54.6,29.82,SW,232,0.0,6.0,54,0.00,,OVC210,0.00,VWS V14.01,2013-04-29 19:19:00,
2013-04-29 15:24:00,71.8,55.3,29.82,South,187,16.0,16.0,56,0.00,,OVC210,0.00,VWS V14.01,2013-04-29 19:24:00,
2013-04-29 15:29:00,72.0,56.0,29.82,SSW,200,0.0,4.0,57,0.00,,OVC210,0.00,VWS V14.01,2013-04-29 19:29:00,
2013-04-29 15:35:00,72.5,55.9,29.82,SW,218,1.0,11.0,56,0.00,,OVC210,0.00,VWS V14.01,2013-04-29 19:35:00,
2013-04-29 15:40:00,72.5,55.4,29.82,SSW,213,6.0,8.0,55,0.00,,OVC210,0.00,VWS V14.01,2013-04-29 19:40:00,
2013-04-29 15:45:00,72.5,54.4,29.82,SW,222,10.0,10.0,53,0.00,,OVC210,0.00,VWS V14.01,2013-04-29 19:45:00,
2013-04-29 15:50:00,72.6,54.5,29.81,SSW,213,3.0,4.0,53,0.00,,OVC210,0.00,VWS V14.01,2013-04-29 19:50:00,
2013-04-29 15:55:00,72.5,53.9,29.81,SSW,213,0.0,7.0,52,0.00,,OVC210,0.00,VWS V14.01,2013-04-29 19:55:00,
2013-04-29 16:00:00,72.5,54.4,29.81,SSW,209,1.0,4.0,53,0.00,,OVC210,0.00,VWS V14.01,2013-04-29 20:00:00,
2013-04-29 16:05:00,72.3,54.7,29.81,WSW,238,2.0,5.0,54,0.00,,OVC210,0.00,VWS V14.01,2013-04-29 20:05:00,
2013-04-29 16:10:00,72.0,54.5,29.81,SW,222,3.0,9.0,54,0.00,,OVC210,0.00,VWS V14.01,2013-04-29 20:10:00,
2013-04-29 16:15:00,71.7,53.2,29.81,SW,229,5.0,7.0,52,0.00,,OVC210,0.00,VWS V14.01,2013-04-29 20:15:00,
2013-04-29 16:20:00,71.3,53.3,29.81,SW,226,7.0,12.0,53,0.00,,OVC210,0.00,VWS V14.01,2013-04-29 20:20:00,
2013-04-29 16:25:00,71.1,53.6,29.81,SW,230,2.0,5.0,54,0.00,,OVC210,0.00,VWS V14.01,2013-04-29 20:25:00,
2013-04-29 16:30:00,71.0,54.5,29.81,SW,224,9.0,9.0,56,0.00,,OVC210,0.00,VWS V14.01,2013-04-29 20:30:00,
2013-04-29 16:35:00,71.0,53.5,29.81,SSW,211,5.0,8.0,54,0.00,,OVC210,0.00,VWS V14.01,2013-04-29 20:35:00,
2013-04-29 16:40:00,71.1,53.1,29.81,SSW,211,0.0,6.0,53,0.00,,OVC210,0.00,VWS V14.01,2013-04-29 20:40:00,
2013-04-29 16:45:00,71.2,54.7,29.81,SW,230,10.0,11.0,56,0.00,,OVC210,0.00,VWS V14.01,2013-04-29 20:45:00,
2013-04-29 16:50:00,71.0,54.5,29.81,WSW,249,4.0,9.0,56,0.00,,OVC210,0.00,VWS V14.01,2013-04-29 20:50:00,
2013-04-29 16:55:00,70.8,54.8,29.81,WSW,249,0.0,3.0,57,0.00,,OVC210,0.00,VWS V14.01,2013-04-29 20:55:00,
2013-04-29 17:00:00,70.7,53.8,29.80,WSW,251,5.0,8.0,55,0.00,,OVC210,0.00,VWS V14.01,2013-04-29 21:00:00,
2013-04-29 17:05:00,70.5,54.5,29.81,West,278,0.0,5.0,57,0.00,,OVC210,0.00,VWS V14.01,2013-04-29 21:05:00,
2013-04-29 17:10:00,70.7,53.3,29.81,West,270,3.0,6.0,54,0.00,,OVC210,0.00,VWS V14.01,2013-04-29 21:10:00,
2013-04-29 17:15:00,70.6,54.2,29.81,West,268,3.0,6.0,56,0.00,,OVC210,0.00,VWS V14.01,2013-04-29 21:15:00,
2013-04-29 17:20:00,70.3,53.9,29.81,West,264,2.0,4.0,56,0.00,,OVC210,0.00,VWS V14.01,2013-04-29 21:20:00,
2013-04-29 17:25:00,70.2,54.3,29.81,West,264,0.0,2.0,57,0.00,,OVC210,0.00,VWS V14.01,2013-04-29 21:25:00,
2013-04-29 17:30:00,70.1,53.7,29.81,West,267,8.0,8.0,56,0.00,,OVC210,0.00,VWS V14.01,2013-04-29 21:30:00,
2013-04-29 17:35:00,70.1,53.7,29.81,WSW,258,0.0,7.0,56,0.00,,OVC210,0.00,VWS V14.01,2013-04-29 21:35:00,
2013-04-29 17:40:00,69.9,53.5,29.81,West,267,0.0,3.0,56,0.00,,OVC210,0.00,VWS V14.01,2013-04-29 21:40:00,
2013-04-29 17:45:00,69.5,53.6,29.81,West,266,3.0,7.0,57,0.00,,OVC210,0.00,VWS V14.01,2013-04-29 21:45:00,
2013-04-29 17:51:00,69.3,53.4,29.82,West,273,0.0,5.0,57,0.00,,OVC210,0.00,VWS V14.01,2013-04-29 21:51:00,
2013-04-29 17:56:00,69.2,53.8,29.81,West,273,0.0,0.0,58,0.00,,OVC210,0.00,VWS V14.01,2013-04-29 21:56:00,
2013-04-29 18:01:00,69.0,52.2,29.81,West,261,0.0,8.0,55,0.00,,OVC250,0.00,VWS V14.01,2013-04-29 22:01:00,
2013-04-29 18:06:00,68.8,52.0,29.81,West,261,0.0,4.0,55,0.00,,OVC250,0.00,VWS V14.01,2013-04-29 22:06:00,
2013-04-29 18:11:00,68.7,51.9,29.81,West,261,0.0,4.0,55,0.00,,OVC250,0.00,VWS V14.01,2013-04-29 22:11:00,
2013-04-29 18:16:00,68.6,52.3,29.80,West,261,0.0,0.0,56,0.00,,OVC250,0.00,VWS V14.01,2013-04-29 22:16:00,
2013-04-29 18:21:00,68.6,52.3,29.80,West,261,0.0,2.0,56,0.00,,OVC250,0.00,VWS V14.01,2013-04-29 22:21:00,
2013-04-29 18:26:00,68.5,52.2,29.80,West,261,0.0,1.0,56,0.00,,OVC250,0.00,VWS V14.01,2013-04-29 22:26:00,
2013-04-29 18:31:00,68.5,52.7,29.81,West,261,0.0,0.0,57,0.00,,OVC250,0.00,VWS V14.01,2013-04-29 22:31:00,
2013-04-29 18:36:00,68.5,52.7,29.81,WSW,255,3.0,6.0,57,0.00,,OVC250,0.00,VWS V14.01,2013-04-29 22:36:00,
2013-04-29 18:41:00,68.4,53.1,29.80,WSW,255,0.0,0.0,58,0.00,,OVC250,0.00,VWS V14.01,2013-04-29 22:41:00,
2013-04-29 18:46:00,68.4,52.6,29.79,WSW,255,0.0,0.0,57,0.00,,OVC250,0.00,VWS V14.01,2013-04-29 22:46:00,
2013-04-29 18:51:00,68.2,52.9,29.77,WSW,255,0.0,0.0,58,0.00,,OVC250,0.00,VWS V14.01,2013-04-29 22:51:00,
2013-04-29 18:56:00,68.1,52.8,29.78,WSW,255,0.0,0.0,58,0.00,,OVC250,0.00,VWS V14.01,2013-04-29 22:56:00,
2013-04-29 19:01:00,68.1,53.2,29.79,WSW,255,0.0,0.0,59,0.00,,OVC250,0.00,VWS V14.01,2013-04-29 23:01:00,
2013-04-29 19:06:00,68.0,53.2,29.79,WSW,255,0.0,0.0,59,0.00,,OVC250,0.00,VWS V14.01,2013-04-29 23:06:00,
2013-04-29 19:11:00,67.9,53.5,29.79,West,262,0.0,0.0,60,0.00,,OVC250,0.00,VWS V14.01,2013-04-29 23:11:00,
2013-04-29 19:16:00,67.9,53.5,29.79,West,263,0.0,0.0,60,0.00,,OVC250,0.00,VWS V14.01,2013-04-29 23:16:00,
2013-04-29 19:21:00,68.0,53.6,29.78,West,263,0.0,0.0,60,0.00,,OVC250,0.00,VWS V14.01,2013-04-29 23:21:00,
2013-04-29 19:26:00,68.2,53.8,29.78,West,263,0.0,0.0,60,0.00,,OVC250,0.00,VWS V14.01,2013-04-29 23:26:00,
2013-04-29 19:31:00,68.4,53.5,29.78,West,263,0.0,0.0,59,0.00,,OVC250,0.00,VWS V14.01,2013-04-29 23:31:00,
2013-04-29 19:36:00,68.6,53.7,29.78,West,263,0.0,0.0,59,0.00,,OVC250,0.00,VWS V14.01,2013-04-29 23:36:00,
2013-04-29 19:41:00,68.8,53.4,29.79,West,263,0.0,0.0,58,0.00,,OVC250,0.00,VWS V14.01,2013-04-29 23:41:00,
2013-04-29 19:46:00,68.8,53.9,29.79,West,263,0.0,0.0,59,0.00,,OVC250,0.00,VWS V14.01,2013-04-29 23:46:00,
2013-04-29 19:51:00,68.8,53.4,29.79,West,263,0.0,0.0,58,0.00,,OVC250,0.00,VWS V14.01,2013-04-29 23:51:00,
2013-04-29 19:56:00,68.6,53.2,29.79,West,263,4.0,6.0,58,0.00,,OVC250,0.00,VWS V14.01,2013-04-29 23:56:00,
2013-04-29 20:01:00,68.5,53.2,29.79,West,263,0.0,0.0,58,0.00,,OVC250,0.00,VWS V14.01,2013-04-30 00:01:00,
2013-04-29 20:06:00,68.2,53.3,29.79,West,263,0.0,0.0,59,0.00,,OVC250,0.00,VWS V14.01,2013-04-30 00:06:00,
2013-04-29 20:12:00,67.9,53.5,29.79,West,263,0.0,0.0,60,0.00,,OVC250,0.00,VWS V14.01,2013-04-30 00:12:00,
2013-04-29 20:17:00,67.6,53.2,29.79,West,263,0.0,0.0,60,0.00,,OVC250,0.00,VWS V14.01,2013-04-30 00:17:00,
2013-04-29 20:22:00,67.3,53.4,29.79,West,263,0.0,0.0,61,0.00,,BKN210,0.00,VWS V14.01,2013-04-30 00:22:00,
2013-04-29 20:27:00,67.1,53.2,29.79,West,263,0.0,0.0,61,0.00,,BKN210,0.00,VWS V14.01,2013-04-30 00:27:00,
2013-04-29 20:32:00,66.9,53.0,29.79,West,263,0.0,0.0,61,0.00,,BKN210,0.00,VWS V14.01,2013-04-30 00:32:00,
2013-04-29 20:37:00,66.7,52.8,29.79,West,263,0.0,0.0,61,0.00,,BKN210,0.00,VWS V14.01,2013-04-30 00:37:00,
2013-04-29 20:42:00,66.4,53.0,29.80,West,263,0.0,0.0,62,0.00,,BKN210,0.00,VWS V14.01,2013-04-30 00:42:00,
2013-04-29 20:47:00,66.2,52.8,29.80,West,263,0.0,0.0,62,0.00,,BKN210,0.00,VWS V14.01,2013-04-30 00:47:00,
2013-04-29 20:52:00,66.0,52.6,29.80,West,263,0.0,0.0,62,0.00,,BKN210,0.00,VWS V14.01,2013-04-30 00:52:00,
2013-04-29 20:57:00,65.7,52.3,29.80,West,263,0.0,0.0,62,0.00,,BKN210,0.00,VWS V14.01,2013-04-30 00:57:00,
2013-04-29 21:02:00,65.5,52.6,29.81,West,263,0.0,0.0,63,0.00,,BKN210,0.00,VWS V14.01,2013-04-30 01:02:00,
2013-04-29 21:07:00,65.3,53.2,29.81,West,263,0.0,0.0,65,0.00,,BKN210,0.00,VWS V14.01,2013-04-30 01:07:00,
2013-04-29 21:12:00,65.2,54.0,29.81,West,263,0.0,0.0,67,0.00,,BKN210,0.00,VWS V14.01,2013-04-30 01:12:00,
2013-04-29 21:17:00,64.9,53.7,29.82,West,263,0.0,0.0,67,0.00,,BKN210,0.00,VWS V14.01,2013-04-30 01:17:00,
2013-04-29 21:22:00,64.7,53.9,29.81,West,263,0.0,0.0,68,0.00,,BKN210,0.00,VWS V14.01,2013-04-30 01:22:00,
2013-04-29 21:27:00,64.6,55.0,29.80,West,263,0.0,0.0,71,0.00,,BKN210,0.00,VWS V14.01,2013-04-30 01:27:00,
2013-04-29 21:32:00,64.4,55.2,29.80,West,263,1.0,4.0,72,0.00,,BKN210,0.00,VWS V14.01,2013-04-30 01:32:00,
2013-04-29 21:37:00,64.2,54.6,29.80,WSW,254,2.0,4.0,71,0.00,,BKN210,0.00,VWS V14.01,2013-04-30 01:37:00,
2013-04-29 21:42:00,64.1,54.1,29.80,WSW,252,0.0,3.0,70,0.00,,BKN210,0.00,VWS V14.01,2013-04-30 01:42:00,
2013-04-29 21:47:00,64.0,54.0,29.80,WSW,252,0.0,0.0,70,0.00,,BKN210,0.00,VWS V14.01,2013-04-30 01:47:00,
2013-04-29 21:52:00,64.0,53.6,29.80,WSW,241,0.0,6.0,69,0.00,,BKN210,0.00,VWS V14.01,2013-04-30 01:52:00,
2013-04-29 21:57:00,64.1,53.7,29.81,WSW,241,0.0,0.0,69,0.00,,BKN210,0.00,VWS V14.01,2013-04-30 01:57:00,
2013-04-29 22:02:00,64.1,53.3,29.81,WSW,241,0.0,0.0,68,0.00,,BKN210,0.00,VWS V14.01,2013-04-30 02:02:00,
2013-04-29 22:07:00,64.1,53.3,29.81,WSW,241,0.0,0.0,68,0.00,,BKN210,0.00,VWS V14.01,2013-04-30 02:07:00,
2013-04-29 22:12:00,64.1,53.3,29.82,WSW,241,0.0,0.0,68,0.00,,BKN210,0.00,VWS V14.01,2013-04-30 02:12:00,
2013-04-29 22:17:00,64.2,53.4,29.82,WSW,241,0.0,0.0,68,0.00,,BKN210,0.00,VWS V14.01,2013-04-30 02:17:00,
2013-04-29 22:22:00,64.2,53.4,29.82,WSW,241,0.0,0.0,68,0.00,,OVC200,0.00,VWS V14.01,2013-04-30 02:22:00,
2013-04-29 22:27:00,64.2,53.4,29.82,WSW,241,0.0,0.0,68,0.00,,OVC200,0.00,VWS V14.01,2013-04-30 02:27:00,
2013-04-29 22:33:00,64.2,53.4,29.82,WSW,241,0.0,0.0,68,0.00,,OVC200,0.00,VWS V14.01,2013-04-30 02:33:00,
2013-04-29 22:38:00,64.2,53.0,29.82,WSW,241,0.0,0.0,67,0.00,,OVC200,0.00,VWS V14.01,2013-04-30 02:38:00,
2013-04-29 22:43:00,64.2,53.0,29.82,WSW,241,0.0,0.0,67,0.00,,OVC200,0.00,VWS V14.01,2013-04-30 02:43:00,
2013-04-29 22:48:00,64.1,52.9,29.82,WSW,241,0.0,0.0,67,0.00,,OVC200,0.00,VWS V14.01,2013-04-30 02:48:00,
2013-04-29 22:53:00,64.0,52.8,29.83,WSW,241,0.0,0.0,67,0.00,,OVC200,0.00,VWS V14.01,2013-04-30 02:53:00,
2013-04-29 22:58:00,63.8,52.7,29.83,WSW,241,0.0,0.0,67,0.00,,OVC200,0.00,VWS V14.01,2013-04-30 02:58:00,
2013-04-29 23:03:00,63.6,52.9,29.83,WSW,241,0.0,0.0,68,0.00,,OVC200,0.00,VWS V14.01,2013-04-30 03:03:00,
2013-04-29 23:08:00,63.5,52.8,29.83,WSW,241,0.0,0.0,68,0.00,,OVC200,0.00,VWS V14.01,2013-04-30 03:08:00,
2013-04-29 23:13:00,63.3,52.6,29.83,WSW,241,0.0,0.0,68,0.00,,OVC200,0.00,VWS V14.01,2013-04-30 03:13:00,
2013-04-29 23:18:00,63.1,52.4,29.82,WSW,241,0.0,0.0,68,0.00,,OVC200,0.00,VWS V14.01,2013-04-30 03:18:00,
2013-04-29 23:23:00,62.8,52.5,29.82,WSW,241,0.0,0.0,69,0.00,,BKN170,0.00,VWS V14.01,2013-04-30 03:23:00,
2013-04-29 23:28:00,62.6,52.3,29.82,WSW,241,0.0,0.0,69,0.00,,BKN170,0.00,VWS V14.01,2013-04-30 03:28:00,
2013-04-29 23:33:00,62.5,52.6,29.82,WSW,241,0.0,1.0,70,0.00,,BKN170,0.00,VWS V14.01,2013-04-30 03:33:00,
2013-04-29 23:38:00,62.3,52.4,29.82,SW,236,0.0,0.0,70,0.00,,BKN170,0.00,VWS V14.01,2013-04-30 03:38:00,
2013-04-29 23:43:00,62.2,52.7,29.82,SW,236,0.0,0.0,71,0.00,,BKN170,0.00,VWS V14.01,2013-04-30 03:43:00,
2013-04-29 23:48:00,62.2,52.7,29.82,SW,236,0.0,0.0,71,0.00,,BKN170,0.00,VWS V14.01,2013-04-30 03:48:00,
2013-04-29 23:53:00,62.1,52.6,29.82,SW,236,0.0,4.0,71,0.00,,BKN170,0.00,VWS V14.01,2013-04-30 03:53:00,
2013-04-29 23:58:00,62.0,52.5,29.82,SW,236,0.0,6.0,71,0.00,,BKN170,0.00,VWS V14.01,2013-04-30 03:58:00,